sensor_id;sensor_type;location;lat;lon;timestamp;pressure;altitude;pressure_sealevel;temperature;humidity
24666;BME280;29726;53.532;-1.478;2023-06-10T00:02:16;100792.41;;;21.32;nan
24666;BME280;29726;53.532;-1.478;2023-06-10T00:05:00;100799.94;;;21.29;nan
24666;BME280;29726;53.532;-1.478;2023-06-10T00:15:57;100809.88;;;21.17;nan
24666;BME280;29726;53.532;-1.478;2023-06-10T00:18:41;100807.88;;;21.12;nan
24666;BME280;29726;53.532;-1.478;2023-06-10T00:21:25;100748.38;;;20.77;nan
24666;BME280;29726;53.532;-1.478;2023-06-10T00:24:10;100806.34;;;21.11;nan
24666;BME280;29726;53.532;-1.478;2023-06-10T00:26:55;100804.09;;;21.04;nan
24666;BME280;29726;53.532;-1.478;2023-06-10T00:29:39;100790.97;;;21.01;nan
24666;BME280;29726;53.532;-1.478;2023-06-10T00:32:23;100790.47;;;20.97;nan
24666;BME280;29726;53.532;-1.478;2023-06-10T00:35:07;100782.50;;;20.96;nan
24666;BME280;29726;53.532;-1.478;2023-06-10T00:37:51;100784.66;;;20.90;nan
24666;BME280;29726;53.532;-1.478;2023-06-10T00:40:39;100788.47;;;20.92;nan
24666;BME280;29726;53.532;-1.478;2023-06-10T00:43:24;100789.53;;;20.89;nan
24666;BME280;29726;53.532;-1.478;2023-06-10T00:46:09;100792.16;;;20.87;nan
24666;BME280;29726;53.532;-1.478;2023-06-10T00:48:53;100781.84;;;20.84;nan
24666;BME280;29726;53.532;-1.478;2023-06-10T00:51:37;100783.66;;;20.82;nan
24666;BME280;29726;53.532;-1.478;2023-06-10T00:54:23;100788.56;;;20.81;nan
24666;BME280;29726;53.532;-1.478;2023-06-10T00:57:07;100772.91;;;20.75;nan
24666;BME280;29726;53.532;-1.478;2023-06-10T00:59:52;100779.63;;;20.72;nan
24666;BME280;29726;53.532;-1.478;2023-06-10T01:02:36;100781.91;;;20.73;nan
24666;BME280;29726;53.532;-1.478;2023-06-10T01:05:21;100775.25;;;20.71;nan
24666;BME280;29726;53.532;-1.478;2023-06-10T01:13:51;100767.38;;;20.58;nan
24666;BME280;29726;53.532;-1.478;2023-06-10T01:19:20;100747.63;;;20.47;nan
24666;BME280;29726;53.532;-1.478;2023-06-10T01:22:07;100751.47;;;20.50;nan
24666;BME280;29726;53.532;-1.478;2023-06-10T01:27:38;100758.22;;;20.47;nan
24666;BME280;29726;53.532;-1.478;2023-06-10T01:30:27;100755.88;;;20.45;nan
24666;BME280;29726;53.532;-1.478;2023-06-10T01:33:17;100750.03;;;20.38;nan
24666;BME280;29726;53.532;-1.478;2023-06-10T01:36:03;100742.34;;;20.33;nan
24666;BME280;29726;53.532;-1.478;2023-06-10T01:38:50;100759.56;;;20.40;nan
24666;BME280;29726;53.532;-1.478;2023-06-10T01:41:34;100748.00;;;20.33;nan
24666;BME280;29726;53.532;-1.478;2023-06-10T01:44:20;100762.66;;;20.37;nan
24666;BME280;29726;53.532;-1.478;2023-06-10T01:47:05;100738.00;;;20.26;nan
24666;BME280;29726;53.532;-1.478;2023-06-10T01:49:49;100744.47;;;20.27;nan
24666;BME280;29726;53.532;-1.478;2023-06-10T01:52:33;100749.34;;;20.26;nan
24666;BME280;29726;53.532;-1.478;2023-06-10T01:55:17;100747.34;;;20.22;nan
24666;BME280;29726;53.532;-1.478;2023-06-10T01:58:01;100751.94;;;20.24;nan
24666;BME280;29726;53.532;-1.478;2023-06-10T02:00:45;100729.66;;;20.10;nan
24666;BME280;29726;53.532;-1.478;2023-06-10T02:06:12;100673.22;;;19.77;nan
24666;BME280;29726;53.532;-1.478;2023-06-10T02:08:56;100731.19;;;20.11;nan
24666;BME280;29726;53.532;-1.478;2023-06-10T02:11:40;100731.72;;;20.10;nan
24666;BME280;29726;53.532;-1.478;2023-06-10T02:14:24;100731.97;;;20.12;nan
24666;BME280;29726;53.532;-1.478;2023-06-10T02:19:56;100747.72;;;20.07;nan
24666;BME280;29726;53.532;-1.478;2023-06-10T02:22:40;100731.78;;;19.99;nan
24666;BME280;29726;53.532;-1.478;2023-06-10T02:25:24;100744.16;;;20.01;nan
24666;BME280;29726;53.532;-1.478;2023-06-10T02:28:08;100738.75;;;19.98;nan
24666;BME280;29726;53.532;-1.478;2023-06-10T02:30:52;100712.78;;;19.88;nan
24666;BME280;29726;53.532;-1.478;2023-06-10T02:33:36;100723.84;;;19.92;nan
24666;BME280;29726;53.532;-1.478;2023-06-10T02:36:24;100699.72;;;19.80;nan
24666;BME280;29726;53.532;-1.478;2023-06-10T02:41:52;100723.06;;;19.91;nan
24666;BME280;29726;53.532;-1.478;2023-06-10T02:44:37;100710.50;;;19.87;nan
24666;BME280;29726;53.532;-1.478;2023-06-10T02:47:22;100720.28;;;19.86;nan
24666;BME280;29726;53.532;-1.478;2023-06-10T02:50:06;100715.47;;;19.75;nan
24666;BME280;29726;53.532;-1.478;2023-06-10T02:52:50;100720.09;;;19.78;nan
24666;BME280;29726;53.532;-1.478;2023-06-10T02:58:19;100715.47;;;19.75;nan
24666;BME280;29726;53.532;-1.478;2023-06-10T03:01:04;100698.81;;;19.61;nan
24666;BME280;29726;53.532;-1.478;2023-06-10T03:03:48;100708.06;;;19.67;nan
24666;BME280;29726;53.532;-1.478;2023-06-10T03:06:34;100714.22;;;19.71;nan
24666;BME280;29726;53.532;-1.478;2023-06-10T03:12:03;100700.38;;;19.62;nan
24666;BME280;29726;53.532;-1.478;2023-06-10T03:17:31;100719.66;;;19.63;nan
24666;BME280;29726;53.532;-1.478;2023-06-10T03:20:15;100716.59;;;19.61;nan
24666;BME280;29726;53.532;-1.478;2023-06-10T03:23:00;100690.16;;;19.48;nan
24666;BME280;29726;53.532;-1.478;2023-06-10T03:25:44;100708.13;;;19.56;nan
24666;BME280;29726;53.532;-1.478;2023-06-10T03:28:28;100682.47;;;19.43;nan
24666;BME280;29726;53.532;-1.478;2023-06-10T03:31:12;100706.56;;;19.55;nan
24666;BME280;29726;53.532;-1.478;2023-06-10T03:33:56;100705.34;;;19.50;nan
24666;BME280;29726;53.532;-1.478;2023-06-10T03:36:42;100695.34;;;19.44;nan
24666;BME280;29726;53.532;-1.478;2023-06-10T03:39:26;100706.38;;;19.47;nan
24666;BME280;29726;53.532;-1.478;2023-06-10T03:44:56;100636.06;;;19.05;nan
24666;BME280;29726;53.532;-1.478;2023-06-10T03:55:52;100669.97;;;19.22;nan
24666;BME280;29726;53.532;-1.478;2023-06-10T03:58:36;100694.34;;;19.36;nan
24666;BME280;29726;53.532;-1.478;2023-06-10T04:01:20;100689.22;;;19.29;nan
24666;BME280;29726;53.532;-1.478;2023-06-10T04:04:04;100692.31;;;19.31;nan
24666;BME280;29726;53.532;-1.478;2023-06-10T04:09:33;100690.53;;;19.22;nan
24666;BME280;29726;53.532;-1.478;2023-06-10T04:15:01;100687.22;;;19.18;nan
24666;BME280;29726;53.532;-1.478;2023-06-10T04:20:29;100692.38;;;19.20;nan
24666;BME280;29726;53.532;-1.478;2023-06-10T04:23:13;100685.19;;;19.19;nan
24666;BME280;29726;53.532;-1.478;2023-06-10T04:25:57;100633.09;;;18.81;nan
24666;BME280;29726;53.532;-1.478;2023-06-10T04:31:27;100671.03;;;19.13;nan
24666;BME280;29726;53.532;-1.478;2023-06-10T04:34:11;100674.34;;;19.12;nan
24666;BME280;29726;53.532;-1.478;2023-06-10T04:36:56;100676.19;;;19.09;nan
24666;BME280;29726;53.532;-1.478;2023-06-10T04:39:40;100691.34;;;19.12;nan
24666;BME280;29726;53.532;-1.478;2023-06-10T04:42:25;100673.38;;;19.04;nan
24666;BME280;29726;53.532;-1.478;2023-06-10T04:47:53;100619.53;;;18.69;nan
24666;BME280;29726;53.532;-1.478;2023-06-10T04:58:51;100633.94;;;18.71;nan
24666;BME280;29726;53.532;-1.478;2023-06-10T05:01:35;100688.81;;;19.03;nan
24666;BME280;29726;53.532;-1.478;2023-06-10T05:04:19;100697.81;;;19.01;nan
24666;BME280;29726;53.532;-1.478;2023-06-10T05:07:03;100675.47;;;18.98;nan
24666;BME280;29726;53.532;-1.478;2023-06-10T05:09:47;100679.59;;;18.97;nan
24666;BME280;29726;53.532;-1.478;2023-06-10T05:12:31;100673.44;;;18.93;nan
24666;BME280;29726;53.532;-1.478;2023-06-10T05:15:15;100664.41;;;18.94;nan
24666;BME280;29726;53.532;-1.478;2023-06-10T05:18:00;100654.41;;;18.88;nan
24666;BME280;29726;53.532;-1.478;2023-06-10T05:20:46;100670.84;;;18.95;nan
24666;BME280;29726;53.532;-1.478;2023-06-10T05:23:30;100674.19;;;18.93;nan
24666;BME280;29726;53.532;-1.478;2023-06-10T05:28:58;100657.22;;;18.93;nan
24666;BME280;29726;53.532;-1.478;2023-06-10T05:34:26;100648.25;;;18.84;nan
24666;BME280;29726;53.532;-1.478;2023-06-10T05:37:13;100647.50;;;18.83;nan
24666;BME280;29726;53.532;-1.478;2023-06-10T05:39:58;100664.16;;;18.92;nan
24666;BME280;29726;53.532;-1.478;2023-06-10T05:42:42;100655.19;;;18.88;nan
24666;BME280;29726;53.532;-1.478;2023-06-10T05:45:27;100660.06;;;18.88;nan
24666;BME280;29726;53.532;-1.478;2023-06-10T05:48:11;100664.97;;;18.87;nan
24666;BME280;29726;53.532;-1.478;2023-06-10T05:50:55;100667.00;;;18.92;nan
24666;BME280;29726;53.532;-1.478;2023-06-10T05:53:39;100669.59;;;18.90;nan
24666;BME280;29726;53.532;-1.478;2023-06-10T05:56:24;100643.41;;;18.73;nan
24666;BME280;29726;53.532;-1.478;2023-06-10T05:59:09;100667.78;;;18.93;nan
24666;BME280;29726;53.532;-1.478;2023-06-10T06:01:53;100650.56;;;18.85;nan
24666;BME280;29726;53.532;-1.478;2023-06-10T06:07:21;100650.28;;;18.89;nan
24666;BME280;29726;53.532;-1.478;2023-06-10T06:12:49;100659.31;;;18.87;nan
24666;BME280;29726;53.532;-1.478;2023-06-10T06:15:33;100673.16;;;18.96;nan
24666;BME280;29726;53.532;-1.478;2023-06-10T06:21:02;100648.97;;;18.95;nan
24666;BME280;29726;53.532;-1.478;2023-06-10T06:26:29;100656.16;;;18.96;nan
24666;BME280;29726;53.532;-1.478;2023-06-10T06:31:57;100667.72;;;19.04;nan
24666;BME280;29726;53.532;-1.478;2023-06-10T06:34:41;100664.38;;;19.05;nan
24666;BME280;29726;53.532;-1.478;2023-06-10T06:40:10;100658.44;;;19.09;nan
24666;BME280;29726;53.532;-1.478;2023-06-10T06:42:54;100656.88;;;19.08;nan
24666;BME280;29726;53.532;-1.478;2023-06-10T06:45:38;100630.19;;;18.98;nan
24666;BME280;29726;53.532;-1.478;2023-06-10T06:48:22;100644.75;;;19.18;nan
24666;BME280;29726;53.532;-1.478;2023-06-10T06:51:05;100634.72;;;19.12;nan
24666;BME280;29726;53.532;-1.478;2023-06-10T06:53:49;100642.19;;;19.20;nan
24666;BME280;29726;53.532;-1.478;2023-06-10T06:56:35;100644.97;;;19.26;nan
24666;BME280;29726;53.532;-1.478;2023-06-10T06:59:19;100657.28;;;19.34;nan
24666;BME280;29726;53.532;-1.478;2023-06-10T07:02:03;100627.72;;;19.29;nan
24666;BME280;29726;53.532;-1.478;2023-06-10T07:04:47;100628.97;;;19.34;nan
24666;BME280;29726;53.532;-1.478;2023-06-10T07:07:33;100623.53;;;19.36;nan
24666;BME280;29726;53.532;-1.478;2023-06-10T07:10:17;100635.06;;;19.49;nan
24666;BME280;29726;53.532;-1.478;2023-06-10T07:13:01;100640.94;;;19.56;nan
24666;BME280;29726;53.532;-1.478;2023-06-10T07:15:44;100642.94;;;19.61;nan
24666;BME280;29726;53.532;-1.478;2023-06-10T07:18:28;100641.59;;;19.68;nan
24666;BME280;29726;53.532;-1.478;2023-06-10T07:21:12;100647.16;;;19.79;nan
24666;BME280;29726;53.532;-1.478;2023-06-10T07:23:56;100651.03;;;19.81;nan
24666;BME280;29726;53.532;-1.478;2023-06-10T07:29:24;100634.50;;;19.85;nan
24666;BME280;29726;53.532;-1.478;2023-06-10T07:32:08;100648.81;;;19.98;nan
24666;BME280;29726;53.532;-1.478;2023-06-10T07:34:52;100654.69;;;20.06;nan
24666;BME280;29726;53.532;-1.478;2023-06-10T07:37:36;100661.34;;;20.14;nan
24666;BME280;29726;53.532;-1.478;2023-06-10T07:40:20;100660.50;;;20.19;nan
24666;BME280;29726;53.532;-1.478;2023-06-10T07:43:04;100652.66;;;20.30;nan
24666;BME280;29726;53.532;-1.478;2023-06-10T07:45:48;100638.25;;;20.28;nan
24666;BME280;29726;53.532;-1.478;2023-06-10T07:48:32;100665.91;;;20.46;nan
24666;BME280;29726;53.532;-1.478;2023-06-10T07:51:16;100667.63;;;20.54;nan
24666;BME280;29726;53.532;-1.478;2023-06-10T07:54:01;100655.19;;;20.57;nan
24666;BME280;29726;53.532;-1.478;2023-06-10T07:59:29;100604.88;;;20.39;nan
24666;BME280;29726;53.532;-1.478;2023-06-10T08:02:13;100658.00;;;20.81;nan
24666;BME280;29726;53.532;-1.478;2023-06-10T08:04:57;100660.97;;;20.94;nan
24666;BME280;29726;53.532;-1.478;2023-06-10T08:07:42;100661.91;;;21.02;nan
24666;BME280;29726;53.532;-1.478;2023-06-10T08:10:26;100652.84;;;21.04;nan
24666;BME280;29726;53.532;-1.478;2023-06-10T08:13:10;100667.88;;;21.17;nan
24666;BME280;29726;53.532;-1.478;2023-06-10T08:15:54;100658.78;;;21.24;nan
24666;BME280;29726;53.532;-1.478;2023-06-10T08:18:39;100666.03;;;21.38;nan
24666;BME280;29726;53.532;-1.478;2023-06-10T08:21:23;100656.66;;;21.43;nan
24666;BME280;29726;53.532;-1.478;2023-06-10T08:24:07;100654.19;;;21.53;nan
24666;BME280;29726;53.532;-1.478;2023-06-10T08:26:51;100669.81;;;21.65;nan
24666;BME280;29726;53.532;-1.478;2023-06-10T08:29:35;100674.78;;;21.77;nan
24666;BME280;29726;53.532;-1.478;2023-06-10T08:35:03;100651.00;;;21.93;nan
24666;BME280;29726;53.532;-1.478;2023-06-10T08:37:47;100641.50;;;22.03;nan
24666;BME280;29726;53.532;-1.478;2023-06-10T08:40:32;100625.88;;;21.97;nan
24666;BME280;29726;53.532;-1.478;2023-06-10T08:43:23;100667.47;;;22.26;nan
24666;BME280;29726;53.532;-1.478;2023-06-10T08:46:14;100601.06;;;22.10;nan
24666;BME280;29726;53.532;-1.478;2023-06-10T08:49:02;100656.25;;;22.46;nan
24666;BME280;29726;53.532;-1.478;2023-06-10T08:51:50;100638.88;;;22.50;nan
24666;BME280;29726;53.532;-1.478;2023-06-10T08:54:36;100633.28;;;22.57;nan
24666;BME280;29726;53.532;-1.478;2023-06-10T08:57:23;100638.09;;;22.75;nan
24666;BME280;29726;53.532;-1.478;2023-06-10T09:00:07;100641.25;;;22.85;nan
24666;BME280;29726;53.532;-1.478;2023-06-10T09:02:51;100649.34;;;22.94;nan
24666;BME280;29726;53.532;-1.478;2023-06-10T09:08:21;100629.88;;;23.11;nan
24666;BME280;29726;53.532;-1.478;2023-06-10T09:16:32;100629.09;;;23.44;nan
24666;BME280;29726;53.532;-1.478;2023-06-10T09:24:46;100627.78;;;23.65;nan
24666;BME280;29726;53.532;-1.478;2023-06-10T09:27:30;100569.03;;;23.42;nan
24666;BME280;29726;53.532;-1.478;2023-06-10T09:33:14;100628.19;;;24.02;nan
24666;BME280;29726;53.532;-1.478;2023-06-10T09:36:02;100615.66;;;24.05;nan
24666;BME280;29726;53.532;-1.478;2023-06-10T09:38:49;100635.38;;;24.24;nan
24666;BME280;29726;53.532;-1.478;2023-06-10T09:41:40;100608.91;;;24.23;nan
24666;BME280;29726;53.532;-1.478;2023-06-10T09:44:24;100617.78;;;24.40;nan
24666;BME280;29726;53.532;-1.478;2023-06-10T09:47:19;100616.19;;;24.52;nan
24666;BME280;29726;53.532;-1.478;2023-06-10T09:50:04;100608.44;;;24.60;nan
24666;BME280;29726;53.532;-1.478;2023-06-10T09:55:36;100616.56;;;24.84;nan
24666;BME280;29726;53.532;-1.478;2023-06-10T09:58:39;100612.41;;;24.93;nan
24666;BME280;29726;53.532;-1.478;2023-06-10T10:01:26;100608.25;;;25.01;nan
24666;BME280;29726;53.532;-1.478;2023-06-10T10:04:10;100602.94;;;25.05;nan
24666;BME280;29726;53.532;-1.478;2023-06-10T10:06:54;100599.97;;;25.18;nan
24666;BME280;29726;53.532;-1.478;2023-06-10T10:09:38;100590.81;;;25.20;nan
24666;BME280;29726;53.532;-1.478;2023-06-10T10:15:09;100549.81;;;25.17;nan
24666;BME280;29726;53.532;-1.478;2023-06-10T10:18:09;100599.66;;;25.59;nan
24666;BME280;29726;53.532;-1.478;2023-06-10T10:20:54;100585.19;;;25.57;nan
24666;BME280;29726;53.532;-1.478;2023-06-10T10:23:47;100587.88;;;25.77;nan
24666;BME280;29726;53.532;-1.478;2023-06-10T10:26:32;100552.78;;;25.55;nan
24666;BME280;29726;53.532;-1.478;2023-06-10T10:29:31;100589.44;;;25.93;nan
24666;BME280;29726;53.532;-1.478;2023-06-10T10:32:16;100580.66;;;25.99;nan
24666;BME280;29726;53.532;-1.478;2023-06-10T10:38:02;100595.91;;;26.24;nan
24666;BME280;29726;53.532;-1.478;2023-06-10T10:40:47;100595.91;;;26.31;nan
24666;BME280;29726;53.532;-1.478;2023-06-10T10:43:31;100598.94;;;26.41;nan
24666;BME280;29726;53.532;-1.478;2023-06-10T10:49:01;100568.38;;;26.51;nan
24666;BME280;29726;53.532;-1.478;2023-06-10T10:54:44;100587.41;;;26.78;nan
24666;BME280;29726;53.532;-1.478;2023-06-10T10:57:29;100583.34;;;26.89;nan
24666;BME280;29726;53.532;-1.478;2023-06-10T11:00:24;100573.19;;;26.95;nan
24666;BME280;29726;53.532;-1.478;2023-06-10T11:03:15;100573.13;;;27.03;nan
24666;BME280;29726;53.532;-1.478;2023-06-10T11:06:12;100577.31;;;27.17;nan
24666;BME280;29726;53.532;-1.478;2023-06-10T11:08:56;100576.50;;;27.24;nan
24666;BME280;29726;53.532;-1.478;2023-06-10T11:11:49;100568.03;;;27.33;nan
24666;BME280;29726;53.532;-1.478;2023-06-10T11:14:33;100569.91;;;27.38;nan
24666;BME280;29726;53.532;-1.478;2023-06-10T11:17:19;100557.28;;;27.41;nan
24666;BME280;29726;53.532;-1.478;2023-06-10T11:20:04;100569.41;;;27.56;nan
24666;BME280;29726;53.532;-1.478;2023-06-10T11:25:42;100565.88;;;27.73;nan
24666;BME280;29726;53.532;-1.478;2023-06-10T11:28:27;100572.69;;;27.85;nan
24666;BME280;29726;53.532;-1.478;2023-06-10T11:36:56;100557.94;;;28.05;nan
24666;BME280;29726;53.532;-1.478;2023-06-10T11:39:41;100549.09;;;28.11;nan
24666;BME280;29726;53.532;-1.478;2023-06-10T11:45:08;100559.44;;;28.31;nan
24666;BME280;29726;53.532;-1.478;2023-06-10T11:47:59;100537.72;;;28.37;nan
24666;BME280;29726;53.532;-1.478;2023-06-10T11:50:44;100538.06;;;28.41;nan
24666;BME280;29726;53.532;-1.478;2023-06-10T11:53:28;100533.34;;;28.53;nan
24666;BME280;29726;53.532;-1.478;2023-06-10T11:56:12;100524.97;;;28.65;nan
24666;BME280;29726;53.532;-1.478;2023-06-10T11:59:07;100540.00;;;28.73;nan
24666;BME280;29726;53.532;-1.478;2023-06-10T12:01:51;100533.81;;;28.76;nan
24666;BME280;29726;53.532;-1.478;2023-06-10T12:04:35;100540.16;;;28.92;nan
24666;BME280;29726;53.532;-1.478;2023-06-10T12:07:21;100540.47;;;28.96;nan
24666;BME280;29726;53.532;-1.478;2023-06-10T12:10:06;100535.72;;;29.08;nan
24666;BME280;29726;53.532;-1.478;2023-06-10T12:12:50;100535.28;;;29.11;nan
24666;BME280;29726;53.532;-1.478;2023-06-10T12:18:20;100531.63;;;29.27;nan
24666;BME280;29726;53.532;-1.478;2023-06-10T12:21:15;100529.38;;;29.35;nan
24666;BME280;29726;53.532;-1.478;2023-06-10T12:26:48;100529.75;;;29.49;nan
24666;BME280;29726;53.532;-1.478;2023-06-10T12:29:31;100510.97;;;29.48;nan
24666;BME280;29726;53.532;-1.478;2023-06-10T12:32:16;100528.91;;;29.65;nan
24666;BME280;29726;53.532;-1.478;2023-06-10T12:35:03;100504.69;;;29.59;nan
24666;BME280;29726;53.532;-1.478;2023-06-10T12:38:02;100504.09;;;29.70;nan
24666;BME280;29726;53.532;-1.478;2023-06-10T12:40:48;100493.34;;;29.70;nan
24666;BME280;29726;53.532;-1.478;2023-06-10T12:43:32;100519.91;;;29.88;nan
24666;BME280;29726;53.532;-1.478;2023-06-10T12:46:17;100513.09;;;29.93;nan
24666;BME280;29726;53.532;-1.478;2023-06-10T12:49:02;100514.66;;;30.03;nan
24666;BME280;29726;53.532;-1.478;2023-06-10T12:51:47;100507.84;;;30.08;nan
24666;BME280;29726;53.532;-1.478;2023-06-10T12:57:15;100509.06;;;30.15;nan
24666;BME280;29726;53.532;-1.478;2023-06-10T13:02:48;100495.75;;;30.29;nan
24666;BME280;29726;53.532;-1.478;2023-06-10T13:05:33;100497.56;;;30.34;nan
24666;BME280;29726;53.532;-1.478;2023-06-10T13:08:17;100469.97;;;30.31;nan
24666;BME280;29726;53.532;-1.478;2023-06-10T13:11:01;100467.97;;;30.43;nan
24666;BME280;29726;53.532;-1.478;2023-06-10T13:16:31;100477.88;;;30.59;nan
24666;BME280;29726;53.532;-1.478;2023-06-10T13:24:44;100473.28;;;30.75;nan
24666;BME280;29726;53.532;-1.478;2023-06-10T13:27:28;100479.81;;;30.75;nan
24666;BME280;29726;53.532;-1.478;2023-06-10T13:32:56;100475.22;;;30.91;nan
24666;BME280;29726;53.532;-1.478;2023-06-10T13:35:40;100466.25;;;30.97;nan
24666;BME280;29726;53.532;-1.478;2023-06-10T13:41:09;100467.59;;;31.05;nan
24666;BME280;29726;53.532;-1.478;2023-06-10T13:43:54;100459.84;;;31.07;nan
24666;BME280;29726;53.532;-1.478;2023-06-10T13:46:38;100451.63;;;31.13;nan
24666;BME280;29726;53.532;-1.478;2023-06-10T13:49:22;100456.47;;;31.20;nan
24666;BME280;29726;53.532;-1.478;2023-06-10T13:52:09;100444.19;;;31.20;nan
24666;BME280;29726;53.532;-1.478;2023-06-10T13:54:53;100450.50;;;31.28;nan
24666;BME280;29726;53.532;-1.478;2023-06-10T14:00:21;100431.97;;;31.31;nan
24666;BME280;29726;53.532;-1.478;2023-06-10T14:03:05;100427.53;;;31.39;nan
24666;BME280;29726;53.532;-1.478;2023-06-10T14:08:33;100454.03;;;31.57;nan
24666;BME280;29726;53.532;-1.478;2023-06-10T14:14:01;100433.34;;;31.60;nan
24666;BME280;29726;53.532;-1.478;2023-06-10T14:16:45;100429.22;;;31.63;nan
24666;BME280;29726;53.532;-1.478;2023-06-10T14:19:29;100444.38;;;31.73;nan
24666;BME280;29726;53.532;-1.478;2023-06-10T14:22:13;100430.09;;;31.75;nan
24666;BME280;29726;53.532;-1.478;2023-06-10T14:27:41;100423.81;;;31.79;nan
24666;BME280;29726;53.532;-1.478;2023-06-10T14:30:25;100442.75;;;31.91;nan
24666;BME280;29726;53.532;-1.478;2023-06-10T14:33:09;100447.56;;;31.98;nan
24666;BME280;29726;53.532;-1.478;2023-06-10T14:35:54;100433.38;;;32.02;nan
24666;BME280;29726;53.532;-1.478;2023-06-10T14:38:38;100436.28;;;32.02;nan
24666;BME280;29726;53.532;-1.478;2023-06-10T14:41:22;100444.88;;;32.12;nan
24666;BME280;29726;53.532;-1.478;2023-06-10T14:44:06;100438.78;;;32.17;nan
24666;BME280;29726;53.532;-1.478;2023-06-10T14:46:50;100396.03;;;31.95;nan
24666;BME280;29726;53.532;-1.478;2023-06-10T14:49:33;100424.84;;;32.25;nan
24666;BME280;29726;53.532;-1.478;2023-06-10T14:52:17;100420.09;;;32.30;nan
24666;BME280;29726;53.532;-1.478;2023-06-10T14:55:02;100445.00;;;32.35;nan
24666;BME280;29726;53.532;-1.478;2023-06-10T14:57:45;100424.13;;;32.36;nan
24666;BME280;29726;53.532;-1.478;2023-06-10T15:00:29;100431.22;;;32.45;nan
24666;BME280;29726;53.532;-1.478;2023-06-10T15:03:13;100412.88;;;32.40;nan
24666;BME280;29726;53.532;-1.478;2023-06-10T15:05:57;100413.38;;;32.48;nan
24666;BME280;29726;53.532;-1.478;2023-06-10T15:08:42;100403.06;;;32.45;nan
24666;BME280;29726;53.532;-1.478;2023-06-10T15:11:25;100404.09;;;32.50;nan
24666;BME280;29726;53.532;-1.478;2023-06-10T15:14:09;100409.13;;;32.61;nan
24666;BME280;29726;53.532;-1.478;2023-06-10T15:16:53;100413.66;;;32.64;nan
24666;BME280;29726;53.532;-1.478;2023-06-10T15:19:39;100395.56;;;32.63;nan
24666;BME280;29726;53.532;-1.478;2023-06-10T15:22:23;100395.84;;;32.67;nan
24666;BME280;29726;53.532;-1.478;2023-06-10T15:25:07;100415.75;;;32.73;nan
24666;BME280;29726;53.532;-1.478;2023-06-10T15:27:52;100416.75;;;32.77;nan
24666;BME280;29726;53.532;-1.478;2023-06-10T15:30:35;100416.25;;;32.81;nan
24666;BME280;29726;53.532;-1.478;2023-06-10T15:33:21;100408.72;;;32.76;nan
24666;BME280;29726;53.532;-1.478;2023-06-10T15:36:05;100407.22;;;32.86;nan
24666;BME280;29726;53.532;-1.478;2023-06-10T15:38:49;100414.00;;;32.90;nan
24666;BME280;29726;53.532;-1.478;2023-06-10T15:41:34;100384.94;;;32.77;nan
24666;BME280;29726;53.532;-1.478;2023-06-10T15:47:02;100407.84;;;32.96;nan
24666;BME280;29726;53.532;-1.478;2023-06-10T15:49:46;100388.84;;;32.93;nan
24666;BME280;29726;53.532;-1.478;2023-06-10T15:52:30;100381.31;;;32.99;nan
24666;BME280;29726;53.532;-1.478;2023-06-10T15:57:58;100354.13;;;32.82;nan
24666;BME280;29726;53.532;-1.478;2023-06-10T16:00:44;100368.72;;;32.95;nan
24666;BME280;29726;53.532;-1.478;2023-06-10T16:03:28;100395.16;;;33.12;nan
24666;BME280;29726;53.532;-1.478;2023-06-10T16:06:12;100398.94;;;33.15;nan
24666;BME280;29726;53.532;-1.478;2023-06-10T16:11:40;100388.09;;;33.15;nan
24666;BME280;29726;53.532;-1.478;2023-06-10T16:14:24;100387.13;;;33.11;nan
24666;BME280;29726;53.532;-1.478;2023-06-10T16:17:08;100393.41;;;33.19;nan
24666;BME280;29726;53.532;-1.478;2023-06-10T16:19:52;100371.75;;;33.08;nan
24666;BME280;29726;53.532;-1.478;2023-06-10T16:22:36;100383.34;;;33.20;nan
24666;BME280;29726;53.532;-1.478;2023-06-10T16:30:48;100398.19;;;33.26;nan
24666;BME280;29726;53.532;-1.478;2023-06-10T16:33:32;100389.38;;;33.24;nan
24666;BME280;29726;53.532;-1.478;2023-06-10T16:36:16;100344.31;;;32.98;nan
24666;BME280;29726;53.532;-1.478;2023-06-10T16:38:59;100359.69;;;33.00;nan
24666;BME280;29726;53.532;-1.478;2023-06-10T16:41:44;100395.31;;;33.26;nan
24666;BME280;29726;53.532;-1.478;2023-06-10T16:44:28;100398.97;;;33.26;nan
24666;BME280;29726;53.532;-1.478;2023-06-10T16:47:12;100390.91;;;33.25;nan
24666;BME280;29726;53.532;-1.478;2023-06-10T16:49:56;100386.91;;;33.18;nan
24666;BME280;29726;53.532;-1.478;2023-06-10T16:52:39;100398.72;;;33.22;nan
24666;BME280;29726;53.532;-1.478;2023-06-10T16:58:07;100391.41;;;33.21;nan
24666;BME280;29726;53.532;-1.478;2023-06-10T17:00:51;100388.09;;;33.15;nan
24666;BME280;29726;53.532;-1.478;2023-06-10T17:03:36;100403.47;;;33.18;nan
24666;BME280;29726;53.532;-1.478;2023-06-10T17:06:20;100393.03;;;33.13;nan
24666;BME280;29726;53.532;-1.478;2023-06-10T17:09:04;100401.72;;;33.13;nan
24666;BME280;29726;53.532;-1.478;2023-06-10T17:14:32;100411.00;;;33.11;nan
24666;BME280;29726;53.532;-1.478;2023-06-10T17:17:16;100393.63;;;33.00;nan
24666;BME280;29726;53.532;-1.478;2023-06-10T17:20:00;100404.06;;;33.05;nan
24666;BME280;29726;53.532;-1.478;2023-06-10T17:22:44;100414.25;;;33.06;nan
24666;BME280;29726;53.532;-1.478;2023-06-10T17:25:29;100411.38;;;33.06;nan
24666;BME280;29726;53.532;-1.478;2023-06-10T17:28:13;100409.50;;;32.99;nan
24666;BME280;29726;53.532;-1.478;2023-06-10T17:30:57;100377.03;;;32.78;nan
24666;BME280;29726;53.532;-1.478;2023-06-10T17:33:41;100432.88;;;33.03;nan
24666;BME280;29726;53.532;-1.478;2023-06-10T17:36:25;100418.16;;;32.99;nan
24666;BME280;29726;53.532;-1.478;2023-06-10T17:39:09;100407.47;;;32.90;nan
24666;BME280;29726;53.532;-1.478;2023-06-10T17:41:52;100417.31;;;32.96;nan
24666;BME280;29726;53.532;-1.478;2023-06-10T17:44:36;100425.81;;;32.94;nan
24666;BME280;29726;53.532;-1.478;2023-06-10T17:47:20;100428.34;;;32.88;nan
24666;BME280;29726;53.532;-1.478;2023-06-10T17:50:05;100418.66;;;32.84;nan